createdAt,value
2023-05-14T00:03:04.425Z,3.65
2023-05-14T00:08:25.671Z,3.45
2023-05-14T00:13:47.203Z,3.78
2023-05-14T00:19:08.493Z,3.90
2023-05-14T00:24:29.237Z,3.95
2023-05-14T00:29:50.023Z,4.38
2023-05-14T00:35:11.112Z,3.60
2023-05-14T00:40:32.389Z,4.18
2023-05-14T00:45:56.175Z,4.20
2023-05-14T00:51:19.117Z,5.25
2023-05-14T00:56:40.046Z,3.88
2023-05-14T01:02:01.037Z,4.95
2023-05-14T01:07:37.392Z,3.88
2023-05-14T01:13:15.724Z,4.35
2023-05-14T01:18:37.226Z,4.45
2023-05-14T01:23:57.867Z,5.22
2023-05-14T01:29:23.694Z,4.40
2023-05-14T01:34:48.870Z,5.10
2023-05-14T01:40:11.519Z,4.85
2023-05-14T01:45:35.642Z,5.28
2023-05-14T01:50:56.524Z,5.32
2023-05-14T01:56:24.171Z,4.53
2023-05-14T02:01:45.376Z,4.78
2023-05-14T02:07:06.155Z,5.28
2023-05-14T02:12:27.064Z,6.00
2023-05-14T02:17:47.971Z,5.82
2023-05-14T02:23:09.300Z,6.05
2023-05-14T02:28:30.140Z,5.80
2023-05-14T02:33:51.126Z,6.18
2023-05-14T02:39:11.970Z,6.18
2023-05-14T02:44:33.081Z,6.30
2023-05-14T02:49:54.235Z,7.38
2023-05-14T02:55:15.128Z,6.68
2023-05-14T03:00:36.100Z,6.97
2023-05-14T03:05:57.879Z,6.50
2023-05-14T03:11:19.049Z,6.22
2023-05-14T03:16:42.349Z,6.40
2023-05-14T03:22:03.630Z,6.72
2023-05-14T03:27:24.777Z,7.20
2023-05-14T03:32:46.239Z,7.03
2023-05-14T03:38:07.813Z,6.78
2023-05-14T03:43:28.970Z,6.72
2023-05-14T03:48:51.499Z,6.93
2023-05-14T03:54:12.741Z,7.13
2023-05-14T03:59:33.791Z,6.40
2023-05-14T04:04:54.809Z,7.10
2023-05-14T04:10:16.371Z,7.00
2023-05-14T04:15:39.362Z,7.03
2023-05-14T04:21:00.881Z,5.47
2023-05-14T04:26:22.133Z,6.18
2023-05-14T04:31:43.372Z,3.95
2023-05-14T04:37:04.449Z,5.95
2023-05-14T04:42:25.629Z,6.32
2023-05-14T04:47:46.915Z,5.78
2023-05-14T04:53:07.649Z,5.82
2023-05-14T04:58:29.455Z,5.85
2023-05-14T05:03:51.634Z,5.35
2023-05-14T05:09:13.155Z,5.85
2023-05-14T05:14:34.137Z,5.95
2023-05-14T05:19:55.312Z,5.82
2023-05-14T05:25:16.522Z,5.13
2023-05-14T05:30:37.465Z,5.20
2023-05-14T05:35:58.179Z,4.03
2023-05-14T05:41:18.938Z,4.82
2023-05-14T05:46:39.757Z,5.32
2023-05-14T05:52:00.733Z,5.07
2023-05-14T05:57:22.917Z,4.68
2023-05-14T06:02:45.074Z,4.32
2023-05-14T06:08:06.126Z,3.90
2023-05-14T06:13:29.278Z,4.70
2023-05-14T06:18:49.987Z,4.70
2023-05-14T06:24:13.439Z,4.70
2023-05-14T06:29:34.315Z,4.93
2023-05-14T06:34:58.075Z,5.05
2023-05-14T06:40:19.324Z,4.00
2023-05-14T06:45:40.618Z,4.18
2023-05-14T06:51:03.499Z,4.25
2023-05-14T06:56:24.506Z,4.50
2023-05-14T07:01:45.257Z,5.07
2023-05-14T07:07:06.000Z,4.15
2023-05-14T07:12:27.449Z,4.53
2023-05-14T07:17:48.407Z,3.90
2023-05-14T07:23:09.345Z,3.88
2023-05-14T07:28:30.392Z,4.43
2023-05-14T07:33:51.247Z,5.15
2023-05-14T07:39:12.415Z,3.85
2023-05-14T07:44:33.286Z,3.17
2023-05-14T07:49:57.750Z,3.45
2023-05-14T07:55:18.498Z,3.33
2023-05-14T08:00:39.798Z,2.95
2023-05-14T08:06:00.757Z,2.90
2023-05-14T08:11:22.562Z,2.72
2023-05-14T08:16:43.567Z,2.22
2023-05-14T08:22:04.939Z,2.60
2023-05-14T08:27:26.501Z,2.88
2023-05-14T08:32:47.754Z,2.28
2023-05-14T08:38:08.702Z,2.80
2023-05-14T08:43:43.181Z,2.80
2023-05-14T08:49:38.272Z,2.85
2023-05-14T08:55:01.622Z,2.50
2023-05-14T09:00:23.396Z,2.25
2023-05-14T09:05:45.957Z,2.95
2023-05-14T09:11:06.988Z,3.05
2023-05-14T09:16:28.610Z,2.47
2023-05-14T09:21:50.014Z,2.70
2023-05-14T09:27:20.159Z,2.25
2023-05-14T09:32:46.033Z,2.92
2023-05-14T09:38:07.920Z,2.15
2023-05-14T09:43:29.153Z,2.33
2023-05-14T09:48:50.501Z,2.30
2023-05-14T09:54:12.018Z,2.90
2023-05-14T09:59:33.104Z,2.00
2023-05-14T10:04:58.120Z,2.22
2023-05-14T10:10:21.413Z,3.25
2023-05-14T10:15:56.106Z,2.28
2023-05-14T10:21:20.238Z,2.50
2023-05-14T10:26:42.153Z,2.47
2023-05-14T10:32:08.274Z,2.13
2023-05-14T10:37:30.656Z,2.00
2023-05-14T10:42:52.706Z,1.92
2023-05-14T10:48:14.468Z,2.42
2023-05-14T10:53:37.917Z,2.40
2023-05-14T10:59:00.373Z,2.05
2023-05-14T11:04:25.264Z,1.90
2023-05-14T11:09:47.308Z,1.55
2023-05-14T11:15:13.389Z,1.67
2023-05-14T11:20:36.113Z,1.90
2023-05-14T11:26:01.341Z,1.63
2023-05-14T11:31:25.710Z,1.70
2023-05-14T11:36:49.748Z,1.80
2023-05-14T11:42:13.569Z,2.38
2023-05-14T11:47:34.828Z,2.05
2023-05-14T11:52:59.141Z,1.55
2023-05-14T11:58:20.475Z,1.40
2023-05-14T12:03:43.889Z,1.50
2023-05-14T12:09:08.441Z,1.52
2023-05-14T12:14:29.578Z,1.27
2023-05-14T12:19:55.065Z,1.33
2023-05-14T12:25:16.360Z,1.63
2023-05-14T12:30:38.168Z,1.23
2023-05-14T12:36:19.723Z,1.23
2023-05-14T12:41:41.927Z,1.55
2023-05-14T12:47:02.959Z,1.52
2023-05-14T12:52:36.861Z,4.07
2023-05-14T12:58:00.120Z,2.35
2023-05-14T13:03:21.264Z,1.40
2023-05-14T13:08:42.762Z,1.50
2023-05-14T13:14:04.293Z,1.30
2023-05-14T13:19:25.339Z,1.30
2023-05-14T13:24:47.718Z,1.65
2023-05-14T13:30:09.119Z,1.45
2023-05-14T13:35:30.390Z,1.40
2023-05-14T13:40:51.179Z,1.67
2023-05-14T13:46:13.977Z,1.42
2023-05-14T13:51:35.074Z,1.40
2023-05-14T13:56:56.426Z,1.25
2023-05-14T14:02:17.890Z,1.05
2023-05-14T14:07:43.193Z,1.20
2023-05-14T14:13:04.148Z,1.25
2023-05-14T14:18:25.132Z,1.38
2023-05-14T14:23:46.381Z,1.35
2023-05-14T14:29:07.359Z,1.80
2023-05-14T14:34:28.210Z,1.20
2023-05-14T14:39:49.366Z,1.50
2023-05-14T14:45:11.106Z,1.63
2023-05-14T14:50:32.412Z,1.65
2023-05-14T14:55:53.697Z,1.70
2023-05-14T15:01:14.765Z,2.03
2023-05-14T15:06:35.730Z,1.60
2023-05-14T15:11:56.835Z,1.67
2023-05-14T15:17:17.895Z,3.88
2023-05-14T15:22:38.821Z,3.55
2023-05-14T15:28:00.204Z,2.00
2023-05-14T15:33:21.324Z,1.75
2023-05-14T15:38:42.637Z,1.70
2023-05-14T15:44:03.888Z,1.70
2023-05-14T15:49:25.099Z,1.83
2023-05-14T15:54:47.345Z,2.65
2023-05-14T16:00:12.099Z,2.58
2023-05-14T16:05:33.268Z,1.90
2023-05-14T16:10:54.515Z,2.67
2023-05-14T16:16:15.912Z,2.40
2023-05-14T16:21:37.229Z,2.00
2023-05-14T16:27:00.124Z,2.30
2023-05-14T16:32:24.060Z,2.42
2023-05-14T16:37:44.992Z,2.13
2023-05-14T16:43:05.892Z,2.05
2023-05-14T16:48:28.070Z,2.40
2023-05-14T16:53:49.413Z,2.35
2023-05-14T16:59:10.550Z,2.10
2023-05-14T17:04:32.997Z,1.50
2023-05-14T17:09:54.034Z,1.65
2023-05-14T17:15:15.084Z,1.75
2023-05-14T17:20:36.114Z,1.52
2023-05-14T17:25:57.356Z,1.90
2023-05-14T17:31:18.185Z,2.70
2023-05-14T17:36:39.618Z,2.47
2023-05-14T17:42:00.459Z,2.17
2023-05-14T17:47:21.311Z,1.83
2023-05-14T17:52:44.258Z,3.40
2023-05-14T17:58:05.601Z,4.13
2023-05-14T18:03:26.981Z,2.50
2023-05-14T18:08:50.090Z,13.77
2023-05-14T18:14:10.880Z,3.72
2023-05-14T18:19:31.969Z,3.92
2023-05-14T18:24:53.237Z,3.33
2023-05-14T18:30:15.633Z,2.15
2023-05-14T18:35:36.608Z,1.95
2023-05-14T18:40:57.855Z,2.22
2023-05-14T18:46:18.723Z,1.70
2023-05-14T18:51:40.904Z,1.60
2023-05-14T18:57:02.021Z,1.52
2023-05-14T19:02:23.251Z,1.70
2023-05-14T19:07:44.365Z,1.90
2023-05-14T19:13:05.222Z,1.88
2023-05-14T19:18:26.576Z,1.50
2023-05-14T19:23:47.372Z,1.60
2023-05-14T19:29:08.422Z,1.50
2023-05-14T19:34:29.161Z,1.70
2023-05-14T19:39:49.872Z,1.70
2023-05-14T19:45:11.167Z,2.63
2023-05-14T19:50:37.073Z,2.35
2023-05-14T19:55:59.995Z,2.10
2023-05-14T20:01:21.146Z,2.30
2023-05-14T20:06:45.553Z,3.08
2023-05-14T20:12:06.906Z,3.25
2023-05-14T20:17:27.893Z,3.40
2023-05-14T20:22:49.158Z,3.15
2023-05-14T20:28:10.841Z,3.47
2023-05-14T20:33:31.999Z,3.17
2023-05-14T20:38:53.013Z,3.40
2023-05-14T20:44:16.435Z,3.20
2023-05-14T20:49:38.773Z,3.13
2023-05-14T20:55:01.503Z,3.50
2023-05-14T21:00:22.841Z,3.42
2023-05-14T21:05:43.821Z,2.92
2023-05-14T21:11:04.976Z,3.58
2023-05-14T21:16:26.193Z,3.03
2023-05-14T21:21:47.517Z,3.30
2023-05-14T21:27:08.638Z,2.90
2023-05-14T21:32:29.703Z,3.50
2023-05-14T21:37:51.304Z,4.50
2023-05-14T21:43:12.521Z,5.00
2023-05-14T21:48:33.569Z,4.95
2023-05-14T21:53:54.607Z,4.13
2023-05-14T21:59:15.499Z,3.92
2023-05-14T22:04:36.565Z,5.15
2023-05-14T22:09:57.599Z,5.60
2023-05-14T22:15:18.460Z,4.53
2023-05-14T22:20:40.023Z,5.53
2023-05-14T22:26:01.360Z,4.40
2023-05-14T22:31:22.712Z,5.10
2023-05-14T22:36:43.585Z,4.15
2023-05-14T22:42:04.832Z,4.95
2023-05-14T22:47:26.033Z,5.38
2023-05-14T22:52:46.748Z,4.68
2023-05-14T22:58:07.687Z,4.63
2023-05-14T23:03:28.986Z,5.03
2023-05-14T23:08:50.012Z,4.93
2023-05-14T23:14:11.128Z,4.38
2023-05-14T23:19:32.159Z,3.63
2023-05-14T23:24:52.925Z,4.13
2023-05-14T23:30:13.811Z,4.18
2023-05-14T23:35:37.617Z,3.63
2023-05-14T23:40:58.723Z,3.78
2023-05-14T23:46:19.447Z,4.35
2023-05-14T23:51:40.604Z,4.43
2023-05-14T23:57:03.304Z,5.68
